createdAt,value
2023-02-01T06:15:48.169Z,100139.78
2023-02-01T06:25:51.064Z,100151.28
2023-02-01T06:35:59.695Z,100148.22
2023-02-01T06:46:02.896Z,100135.31
2023-02-01T06:56:13.850Z,100130.63
2023-02-01T07:06:15.907Z,100111.44
2023-02-01T07:16:22.037Z,100108.19
2023-02-01T07:26:26.867Z,100100.28
2023-02-01T07:36:28.644Z,100089.00
2023-02-01T07:46:30.374Z,100063.53
2023-02-01T07:56:34.324Z,100079.16
2023-02-01T08:06:36.094Z,100084.66
2023-02-01T08:16:46.223Z,100074.31
2023-02-01T08:26:48.007Z,100090.75
2023-02-01T08:36:50.028Z,100086.06
2023-02-01T08:46:51.860Z,100103.03
2023-02-01T08:56:55.402Z,100101.72
2023-02-01T09:06:57.193Z,100111.88
2023-02-01T09:16:59.404Z,100117.53
2023-02-01T09:27:01.169Z,100128.50
2023-02-01T09:37:03.038Z,100137.84
2023-02-01T09:47:04.749Z,100160.59
2023-02-01T09:57:09.367Z,100170.75
2023-02-01T10:07:29.440Z,100168.31
2023-02-01T10:17:46.295Z,100180.91
2023-02-01T10:27:47.971Z,100189.94
2023-02-01T10:37:49.777Z,100180.09
2023-02-01T10:47:52.321Z,100178.25
2023-02-01T10:58:04.836Z,100190.25
2023-02-01T11:08:06.753Z,100171.53
2023-02-01T11:18:19.878Z,100162.19
2023-02-01T11:28:24.199Z,100153.16
2023-02-01T11:38:33.480Z,100134.78
2023-02-01T11:48:35.230Z,100115.97
2023-02-01T11:58:55.595Z,100112.22
2023-02-01T12:09:26.300Z,100108.25
2023-02-01T12:20:04.229Z,100084.16
2023-02-01T12:30:37.501Z,100074.63
2023-02-01T12:41:24.775Z,100059.00
2023-02-01T12:51:30.169Z,100030.97
2023-02-01T13:02:01.083Z,100018.03
2023-02-01T13:12:08.501Z,100000.47
2023-02-01T13:22:16.631Z,100054.53
2023-02-01T13:33:51.690Z,100045.47
2023-02-01T13:42:53.401Z,100024.84
2023-02-01T13:52:57.605Z,99999.03
2023-02-01T14:03:02.337Z,99984.22
2023-02-01T14:13:05.391Z,99981.78
2023-02-01T14:23:12.926Z,99966.94
2023-02-01T14:33:25.247Z,99941.97
2023-02-01T14:43:50.792Z,99929.53
2023-02-01T14:53:52.442Z,99913.72
2023-02-01T15:04:00.544Z,99899.69
2023-02-01T15:14:02.148Z,99876.94
2023-02-01T15:24:20.303Z,99899.69
2023-02-01T15:34:22.619Z,99903.56
2023-02-01T15:44:35.707Z,99929.84
2023-02-01T15:54:45.179Z,99926.50
2023-02-01T16:04:47.893Z,99961.00
2023-02-01T16:14:49.500Z,99961.56
2023-02-01T16:24:51.093Z,99958.28
2023-02-01T16:34:54.665Z,99950.88
2023-02-01T16:44:56.228Z,99975.91
2023-02-01T16:54:57.854Z,99994.00
2023-02-01T17:04:59.463Z,100001.66
2023-02-01T17:15:01.156Z,100006.53
2023-02-01T17:25:02.788Z,100006.53
2023-02-01T17:35:04.509Z,99995.88
2023-02-01T17:45:49.976Z,100011.00
2023-02-01T17:55:51.889Z,100018.44
2023-02-01T18:05:54.601Z,100026.97
2023-02-01T18:15:56.294Z,100029.72
2023-02-01T18:25:57.971Z,100034.38
2023-02-01T18:35:59.553Z,100043.94
2023-02-01T18:46:01.126Z,100040.88
2023-02-01T18:56:02.965Z,100043.44
2023-02-01T19:06:04.590Z,100054.69
2023-02-01T19:16:07.511Z,100071.16
2023-02-01T19:26:12.893Z,100073.41
2023-02-01T19:36:14.787Z,100072.28
2023-02-01T19:46:16.447Z,100072.59
2023-02-01T19:56:18.170Z,100073.72
2023-02-01T20:06:18.998Z,100087.75
2023-02-01T20:16:20.902Z,100076.78
2023-02-01T20:26:25.314Z,100085.00
2023-02-01T20:36:27.717Z,100081.44
2023-02-01T20:46:29.488Z,100083.38
2023-02-01T20:56:31.215Z,100095.97
2023-02-01T21:06:32.887Z,100102.25
2023-02-01T21:16:34.669Z,100089.06
2023-02-01T21:26:42.505Z,100103.38
2023-02-01T21:36:44.128Z,100105.50
2023-02-01T21:46:45.774Z,100122.78
2023-02-01T21:56:47.499Z,100109.53
2023-02-01T22:06:49.179Z,100113.13
2023-02-01T22:16:50.909Z,100117.50
2023-02-01T22:26:52.586Z,100119.09
2023-02-01T22:36:55.764Z,100112.81
2023-02-01T22:46:57.388Z,100114.44
2023-02-01T22:57:00.219Z,100121.50
2023-02-01T23:07:01.925Z,100096.56
2023-02-01T23:17:03.556Z,100088.81
2023-02-01T23:27:05.163Z,100066.59
2023-02-01T23:37:06.848Z,100060.78
2023-02-01T23:47:09.295Z,100026.53
2023-02-01T23:57:11.016Z,100041.09
